Weather at Dallas Fort Worth International Airport

Public forecast

Using degrees Fahrenheit for public forecast. Weather courtesy of forecast.io.

Current aviation weather report (METAR) for Dallas Fort Worth International Airport

Retrieved 2021/10/19 20:53 UTC (56 minutes ago):

KDFW 192053Z 17015G22KT 10SM FEW200 FEW250 27/12 A2996 RMK AO2 SLP139 T02670122 56024

Aviation forecast (TAF) for Dallas Fort Worth International Airport

Retrieved 2021/10/19 18:22 UTC (3 hours ago):

TAF KDFW 191720Z 1918/2024 17012G22KT P6SM FEW150 FEW250 FM200700 18009KT P6SM SCT250 FM201000 18008KT P6SM FEW025 SCT200 TEMPO 2013/2016 BKN025 FM202200 20009KT P6SM FEW100